createdAt,value
2019-02-19T00:00:05.886Z,7.20
2019-02-19T00:02:34.848Z,5.03
2019-02-19T00:05:03.901Z,7.13
2019-02-19T00:07:33.155Z,10.63
2019-02-19T00:10:02.234Z,11.97
2019-02-19T00:12:31.207Z,4.80
2019-02-19T00:15:07.978Z,7.07
2019-02-19T00:17:31.216Z,9.00
2019-02-19T00:20:00.534Z,8.37
2019-02-19T00:22:29.558Z,5.77
2019-02-19T00:24:58.612Z,8.30
2019-02-19T00:27:27.943Z,8.00
2019-02-19T00:29:57.035Z,5.47
2019-02-19T00:32:26.000Z,6.27
2019-02-19T00:34:55.028Z,4.77
2019-02-19T00:37:24.373Z,5.37
2019-02-19T00:39:53.262Z,5.90
2019-02-19T00:42:22.423Z,8.53
2019-02-19T00:44:51.384Z,6.10
2019-02-19T00:47:20.355Z,10.80
2019-02-19T00:49:49.593Z,6.17
2019-02-19T00:52:18.616Z,6.17
2019-02-19T00:54:47.656Z,8.27
2019-02-19T00:57:16.702Z,4.93
2019-02-19T00:59:45.645Z,6.10
2019-02-19T01:02:14.926Z,5.53
2019-02-19T01:04:44.618Z,5.47
2019-02-19T01:07:13.904Z,12.20
2019-02-19T01:09:42.919Z,9.80
2019-02-19T01:12:11.963Z,6.00
2019-02-19T01:14:41.270Z,4.97
2019-02-19T01:17:10.198Z,5.67
2019-02-19T01:19:39.422Z,6.57
2019-02-19T01:22:09.442Z,6.60
2019-02-19T01:24:38.939Z,8.03
2019-02-19T01:27:08.454Z,6.67
2019-02-19T01:29:37.498Z,6.23
2019-02-19T01:32:06.528Z,5.93
2019-02-19T01:34:35.484Z,5.43
2019-02-19T01:37:04.605Z,7.77
2019-02-19T01:39:33.967Z,4.73
2019-02-19T01:42:03.108Z,8.23
2019-02-19T01:44:32.855Z,7.67
2019-02-19T01:47:01.709Z,6.37
2019-02-19T01:49:30.666Z,5.57
2019-02-19T01:51:59.705Z,7.17
2019-02-19T01:54:28.591Z,7.60
2019-02-19T01:56:58.049Z,6.13
2019-02-19T01:59:27.083Z,6.83
2019-02-19T02:01:56.126Z,3.50
2019-02-19T02:04:25.373Z,5.40
2019-02-19T02:06:54.295Z,5.10
2019-02-19T02:09:23.244Z,8.53
2019-02-19T02:11:52.873Z,4.83
2019-02-19T02:14:21.880Z,8.97
2019-02-19T02:16:51.522Z,7.37
2019-02-19T02:19:20.470Z,7.13
2019-02-19T02:21:49.426Z,6.50
2019-02-19T02:24:18.439Z,6.50
2019-02-19T02:26:47.462Z,8.70
2019-02-19T02:29:17.081Z,8.60
2019-02-19T02:31:46.156Z,4.60
2019-02-19T02:34:15.123Z,11.60
2019-02-19T02:36:44.445Z,7.47
2019-02-19T02:39:13.534Z,6.83
2019-02-19T02:41:43.035Z,7.67
2019-02-19T02:44:12.118Z,9.33
2019-02-19T02:46:41.172Z,10.43
2019-02-19T02:49:10.131Z,9.53
2019-02-19T02:51:39.184Z,8.07
2019-02-19T02:54:08.273Z,10.50
2019-02-19T02:56:37.246Z,12.07
2019-02-19T02:59:06.641Z,13.30
2019-02-19T03:01:35.632Z,13.60
2019-02-19T03:04:05.090Z,11.60
2019-02-19T03:06:51.085Z,18.97
2019-02-19T03:09:20.879Z,14.27
2019-02-19T03:11:49.916Z,14.83
2019-02-19T03:14:18.926Z,15.93
2019-02-19T03:16:48.261Z,15.70
2019-02-19T03:19:17.226Z,17.07
2019-02-19T03:21:46.452Z,17.97
2019-02-19T03:24:15.557Z,15.53
2019-02-19T03:26:44.610Z,22.60
2019-02-19T03:29:13.878Z,14.17
2019-02-19T03:31:43.165Z,16.57
2019-02-19T03:34:12.520Z,20.63
2019-02-19T03:36:41.803Z,23.37
2019-02-19T03:39:10.848Z,18.80
2019-02-19T03:41:39.936Z,21.60
2019-02-19T03:44:09.382Z,17.60
2019-02-19T03:46:38.427Z,23.57
2019-02-19T03:49:07.754Z,21.50
2019-02-19T03:51:36.724Z,20.43
2019-02-19T03:54:05.779Z,24.10
2019-02-19T03:56:35.121Z,18.87
2019-02-19T03:59:04.247Z,26.03
2019-02-19T04:01:33.572Z,19.27
2019-02-19T04:04:02.756Z,23.17
2019-02-19T04:06:32.471Z,20.23
2019-02-19T04:09:01.774Z,23.80
2019-02-19T04:11:31.061Z,20.07
2019-02-19T04:14:00.254Z,20.33
2019-02-19T04:16:29.332Z,28.30
2019-02-19T04:18:58.404Z,23.47
2019-02-19T04:21:27.352Z,25.20
2019-02-19T04:23:56.576Z,27.53
2019-02-19T04:26:25.665Z,22.30
2019-02-19T04:28:54.741Z,23.43
2019-02-19T04:31:24.083Z,27.70
2019-02-19T04:33:53.130Z,26.37
2019-02-19T04:36:22.671Z,28.03
2019-02-19T04:38:51.668Z,28.50
2019-02-19T04:41:20.718Z,30.60
2019-02-19T04:43:50.619Z,31.03
2019-02-19T04:46:19.687Z,22.37
2019-02-19T04:48:48.642Z,29.87
2019-02-19T04:51:17.786Z,33.93
2019-02-19T04:53:46.863Z,31.77
2019-02-19T04:56:15.878Z,30.87
2019-02-19T04:58:44.862Z,26.93
2019-02-19T05:01:13.785Z,34.03
2019-02-19T05:03:43.072Z,31.63
2019-02-19T05:06:12.096Z,36.30
2019-02-19T05:08:41.136Z,35.27
2019-02-19T05:11:10.651Z,38.97
2019-02-19T05:13:40.098Z,38.17
2019-02-19T05:16:09.460Z,37.20
2019-02-19T05:18:38.510Z,35.20
2019-02-19T05:21:07.671Z,38.20
2019-02-19T05:23:37.172Z,36.20
2019-02-19T05:26:06.432Z,35.33
2019-02-19T05:28:35.542Z,36.60
2019-02-19T05:31:04.711Z,37.27
2019-02-19T05:33:33.970Z,41.73
2019-02-19T05:36:03.055Z,40.63
2019-02-19T05:38:32.096Z,38.37
2019-02-19T05:41:01.178Z,44.60
2019-02-19T05:43:30.279Z,35.13
2019-02-19T05:45:59.306Z,34.47
2019-02-19T05:48:28.767Z,39.47
2019-02-19T05:50:58.249Z,36.63
2019-02-19T05:53:27.350Z,41.90
2019-02-19T05:55:56.428Z,37.87
2019-02-19T05:58:25.686Z,34.43
2019-02-19T06:00:54.697Z,35.03
2019-02-19T06:03:23.804Z,32.70
2019-02-19T06:05:52.819Z,36.87
2019-02-19T06:08:21.806Z,36.03
2019-02-19T06:10:51.160Z,39.53
2019-02-19T06:13:20.535Z,31.87
2019-02-19T06:15:49.521Z,35.50
2019-02-19T06:18:18.559Z,30.67
2019-02-19T06:20:47.569Z,38.17
2019-02-19T06:23:16.652Z,31.67
2019-02-19T06:25:45.706Z,34.13
2019-02-19T06:28:14.718Z,32.07
2019-02-19T06:30:44.015Z,38.83
2019-02-19T06:33:13.451Z,34.27
2019-02-19T06:35:42.568Z,32.87
2019-02-19T06:38:11.746Z,32.47
2019-02-19T06:40:40.843Z,32.87
2019-02-19T06:43:09.828Z,37.63
2019-02-19T06:45:39.252Z,38.40
2019-02-19T06:48:08.205Z,37.73
2019-02-19T06:50:37.545Z,36.83
2019-02-19T06:53:07.135Z,33.97
2019-02-19T06:55:36.453Z,32.50
2019-02-19T06:58:06.179Z,27.90
2019-02-19T07:00:35.973Z,33.17
2019-02-19T07:03:27.890Z,27.50
2019-02-19T07:05:56.962Z,36.73
2019-02-19T07:08:25.971Z,33.50
2019-02-19T07:10:55.052Z,27.50
2019-02-19T07:13:24.016Z,27.30
2019-02-19T07:15:53.020Z,28.87
2019-02-19T07:18:22.708Z,29.43
2019-02-19T07:20:51.823Z,27.80
2019-02-19T07:23:21.420Z,29.57
2019-02-19T07:25:50.882Z,28.40
2019-02-19T07:28:20.683Z,26.17
2019-02-19T07:30:50.264Z,28.83
2019-02-19T07:33:19.348Z,31.53
2019-02-19T07:35:48.449Z,25.43
2019-02-19T07:38:17.512Z,27.33
2019-02-19T07:40:46.907Z,30.73
2019-02-19T07:43:16.470Z,25.37
2019-02-19T07:45:52.385Z,24.23
2019-02-19T07:48:21.437Z,30.80
2019-02-19T07:50:50.873Z,29.10
2019-02-19T07:53:19.909Z,27.20
2019-02-19T07:55:49.021Z,31.77
2019-02-19T07:58:18.849Z,24.00
2019-02-19T08:00:48.088Z,26.70
2019-02-19T08:03:17.873Z,25.50
2019-02-19T08:05:46.977Z,22.20
2019-02-19T08:08:16.005Z,24.67
2019-02-19T08:10:45.047Z,25.73
2019-02-19T08:13:14.474Z,26.23
2019-02-19T08:15:43.473Z,27.07
2019-02-19T08:18:12.423Z,22.37
2019-02-19T08:20:41.926Z,24.70
2019-02-19T08:23:10.978Z,23.43
2019-02-19T08:25:40.140Z,22.57
2019-02-19T08:28:09.549Z,23.53
2019-02-19T08:30:38.732Z,22.13
2019-02-19T08:33:07.738Z,23.23
2019-02-19T08:35:36.651Z,20.43
2019-02-19T08:38:05.782Z,20.33
2019-02-19T08:40:35.055Z,21.33
2019-02-19T08:43:04.351Z,22.77
2019-02-19T08:45:33.424Z,23.53
2019-02-19T08:48:03.123Z,20.53
2019-02-19T08:50:32.666Z,19.77
2019-02-19T08:53:01.758Z,21.17
2019-02-19T08:55:30.970Z,22.17
2019-02-19T08:57:59.995Z,22.97
2019-02-19T09:00:29.430Z,16.63
2019-02-19T09:02:58.697Z,21.03
2019-02-19T09:05:27.765Z,22.00
2019-02-19T09:07:56.943Z,18.67
2019-02-19T09:10:26.388Z,19.37
2019-02-19T09:12:55.426Z,18.20
2019-02-19T09:15:24.633Z,18.47
2019-02-19T09:17:53.638Z,20.07
2019-02-19T09:20:22.667Z,19.90
2019-02-19T09:22:52.587Z,20.17
2019-02-19T09:25:21.747Z,18.67
2019-02-19T09:27:51.368Z,19.07
2019-02-19T09:30:20.409Z,20.43
2019-02-19T09:32:49.598Z,23.23
2019-02-19T09:35:18.724Z,20.77
2019-02-19T09:37:48.006Z,19.10
2019-02-19T09:40:17.433Z,20.87
2019-02-19T09:42:46.801Z,17.93
2019-02-19T09:45:15.952Z,18.33
2019-02-19T09:47:45.204Z,22.77
2019-02-19T09:50:14.418Z,18.33
2019-02-19T09:52:44.007Z,18.87
2019-02-19T09:55:13.159Z,18.80
2019-02-19T09:57:42.457Z,17.60
2019-02-19T10:00:12.348Z,20.00
2019-02-19T10:02:41.544Z,20.83
2019-02-19T10:05:11.470Z,19.43
2019-02-19T10:07:40.842Z,15.83
2019-02-19T10:10:12.142Z,13.53
2019-02-19T10:12:41.053Z,16.33
2019-02-19T10:15:11.206Z,13.53
2019-02-19T10:17:40.546Z,12.80
2019-02-19T10:20:10.081Z,13.80
2019-02-19T10:22:39.776Z,17.67
2019-02-19T10:25:10.266Z,13.60
2019-02-19T10:27:39.551Z,7.70
2019-02-19T10:30:10.936Z,7.77
2019-02-19T10:32:40.135Z,8.70
2019-02-19T10:35:10.220Z,7.60
2019-02-19T10:37:39.308Z,5.97
2019-02-19T10:40:10.241Z,7.63
2019-02-19T10:42:39.454Z,7.37
2019-02-19T10:45:10.693Z,6.13
2019-02-19T10:47:39.680Z,6.10
2019-02-19T10:50:09.291Z,5.30
2019-02-19T10:52:38.427Z,7.10
2019-02-19T10:55:07.633Z,8.13
2019-02-19T10:57:36.728Z,14.30
2019-02-19T11:00:08.515Z,8.43
2019-02-19T11:02:38.204Z,10.10
2019-02-19T11:05:07.613Z,10.30
2019-02-19T11:07:36.727Z,10.40
2019-02-19T11:10:07.157Z,12.20
2019-02-19T11:12:36.721Z,11.20
2019-02-19T11:15:06.433Z,6.87
2019-02-19T11:17:35.952Z,8.30
2019-02-19T11:20:05.670Z,8.03
2019-02-19T11:22:35.000Z,11.80
2019-02-19T11:25:04.155Z,5.87
2019-02-19T11:27:33.880Z,4.67
2019-02-19T11:30:03.283Z,7.47
2019-02-19T11:32:32.355Z,6.70
2019-02-19T11:35:01.810Z,7.60
2019-02-19T11:37:31.119Z,9.07
2019-02-19T11:40:00.256Z,5.80
2019-02-19T11:42:30.550Z,6.23
2019-02-19T11:44:59.556Z,3.87
2019-02-19T11:47:28.755Z,7.80
2019-02-19T11:49:58.267Z,5.97
2019-02-19T11:52:30.257Z,9.50
2019-02-19T11:54:59.560Z,7.57
2019-02-19T11:57:28.630Z,4.27
2019-02-19T11:59:58.010Z,7.87
2019-02-19T12:02:32.745Z,8.00
2019-02-19T12:04:58.267Z,7.53
2019-02-19T12:07:27.430Z,7.10
2019-02-19T12:09:56.777Z,3.60
2019-02-19T12:12:25.924Z,6.97
2019-02-19T12:14:55.014Z,6.47
2019-02-19T12:17:24.166Z,6.43
2019-02-19T12:19:53.173Z,4.87
2019-02-19T12:22:22.901Z,6.73
2019-02-19T12:24:51.981Z,4.57
2019-02-19T12:27:22.102Z,6.17
2019-02-19T12:29:51.749Z,11.23
2019-02-19T12:32:21.095Z,9.63
2019-02-19T12:34:50.123Z,6.70
2019-02-19T12:37:19.015Z,6.60
2019-02-19T12:39:48.188Z,5.83
2019-02-19T12:42:17.235Z,9.83
2019-02-19T12:44:46.392Z,6.33
2019-02-19T12:47:15.751Z,5.43
2019-02-19T12:49:44.756Z,7.60
2019-02-19T12:52:14.079Z,8.83
2019-02-19T12:54:43.408Z,4.43
2019-02-19T12:57:14.678Z,7.67
2019-02-19T12:59:44.131Z,7.20
2019-02-19T13:02:13.207Z,7.77
2019-02-19T13:04:43.124Z,8.80
2019-02-19T13:07:12.687Z,5.43
2019-02-19T13:09:42.047Z,6.07
2019-02-19T13:12:11.795Z,3.77
2019-02-19T13:14:40.922Z,6.00
2019-02-19T13:17:10.015Z,8.73
2019-02-19T13:19:39.311Z,5.53
2019-02-19T13:22:08.441Z,4.23
2019-02-19T13:24:37.366Z,3.20
2019-02-19T13:27:06.411Z,10.27
2019-02-19T13:29:35.774Z,6.27
2019-02-19T13:32:04.907Z,6.37
2019-02-19T13:34:33.938Z,7.50
2019-02-19T13:37:03.100Z,6.97
2019-02-19T13:39:32.189Z,4.80
2019-02-19T13:42:01.580Z,6.97
2019-02-19T13:44:31.217Z,9.07
2019-02-19T13:47:00.319Z,6.10
2019-02-19T13:49:29.457Z,8.50
2019-02-19T13:52:04.049Z,7.67
2019-02-19T13:54:41.285Z,7.53
2019-02-19T13:57:10.723Z,6.83
2019-02-19T13:59:40.061Z,5.17
2019-02-19T14:02:09.040Z,9.37
2019-02-19T14:04:38.686Z,4.47
2019-02-19T14:07:07.728Z,5.87
2019-02-19T14:09:36.780Z,6.33
2019-02-19T14:12:05.850Z,6.67
2019-02-19T14:15:00.289Z,4.53
2019-02-19T14:17:29.799Z,3.63
2019-02-19T14:20:23.917Z,9.20
2019-02-19T14:23:17.970Z,9.63
2019-02-19T14:26:15.119Z,8.47
2019-02-19T14:29:05.432Z,6.57
2019-02-19T14:31:56.893Z,2.70
2019-02-19T14:34:43.705Z,5.93
2019-02-19T14:37:31.428Z,8.67
2019-02-19T14:40:10.912Z,4.47
2019-02-19T14:43:14.305Z,2.13
2019-02-19T14:46:08.869Z,6.60
2019-02-19T14:49:09.109Z,6.07
2019-02-19T14:51:50.532Z,6.27
2019-02-19T14:54:40.551Z,4.10
2019-02-19T14:57:24.608Z,5.27
2019-02-19T15:00:12.224Z,6.07
2019-02-19T15:03:16.143Z,8.43
2019-02-19T15:06:20.042Z,6.23
2019-02-19T15:09:11.459Z,7.53
2019-02-19T15:12:14.643Z,8.17
2019-02-19T15:15:06.695Z,7.10
2019-02-19T15:17:55.145Z,3.27
2019-02-19T15:20:44.815Z,5.57
2019-02-19T15:23:23.797Z,4.43
2019-02-19T15:26:10.873Z,8.17
2019-02-19T15:28:59.022Z,6.30
2019-02-19T15:31:42.063Z,6.60
2019-02-19T15:34:33.239Z,6.90
2019-02-19T15:37:20.077Z,7.17
2019-02-19T15:40:07.146Z,6.07
2019-02-19T15:43:04.337Z,12.33
2019-02-19T15:45:51.170Z,5.50
2019-02-19T15:48:48.568Z,9.60
2019-02-19T15:51:54.790Z,8.63
2019-02-19T15:54:36.776Z,5.77
2019-02-19T15:57:23.558Z,7.33
2019-02-19T16:00:07.378Z,6.67
2019-02-19T16:03:04.944Z,8.53
2019-02-19T16:06:08.554Z,7.13
2019-02-19T16:08:47.627Z,8.53
2019-02-19T16:11:41.729Z,5.63
2019-02-19T16:14:23.991Z,5.93
2019-02-19T16:17:12.195Z,7.97
2019-02-19T16:19:46.342Z,9.30
2019-02-19T16:22:37.799Z,5.57
2019-02-19T16:25:28.790Z,4.43
2019-02-19T16:28:15.211Z,4.00
2019-02-19T16:31:02.696Z,8.40
2019-02-19T16:33:41.998Z,11.53
2019-02-19T16:36:26.197Z,9.33
2019-02-19T16:39:03.109Z,5.90
2019-02-19T16:41:45.251Z,4.87
2019-02-19T16:44:29.107Z,7.47
2019-02-19T16:47:20.322Z,6.77
2019-02-19T16:49:55.792Z,6.83
2019-02-19T16:52:50.911Z,9.87
2019-02-19T16:55:31.780Z,9.20
2019-02-19T16:58:26.213Z,8.80
2019-02-19T17:01:29.949Z,8.47
2019-02-19T17:04:10.369Z,7.20
2019-02-19T17:07:07.670Z,11.53
2019-02-19T17:09:59.003Z,6.13
2019-02-19T17:12:50.625Z,8.70
2019-02-19T17:15:41.546Z,8.00
2019-02-19T17:18:39.160Z,6.43
2019-02-19T17:21:27.251Z,5.30
2019-02-19T17:24:09.532Z,8.40
2019-02-19T17:26:51.925Z,5.23
2019-02-19T17:29:33.549Z,7.37
2019-02-19T17:32:34.320Z,5.20
2019-02-19T17:35:27.463Z,7.77
2019-02-19T17:38:14.758Z,10.43
2019-02-19T17:40:59.827Z,8.23
2019-02-19T17:43:51.221Z,8.87
2019-02-19T17:46:33.225Z,10.47
2019-02-19T17:49:13.312Z,9.30
2019-02-19T17:52:00.409Z,8.33
2019-02-19T17:54:48.851Z,15.40
2019-02-19T17:57:36.362Z,10.67
2019-02-19T18:00:24.917Z,8.13
2019-02-19T18:03:19.633Z,5.93
2019-02-19T18:06:00.082Z,8.60
2019-02-19T18:08:57.206Z,23.17
2019-02-19T18:11:51.152Z,9.33
2019-02-19T18:14:49.812Z,12.53
2019-02-19T18:17:26.932Z,7.93
2019-02-19T18:19:56.084Z,7.93
2019-02-19T18:22:25.164Z,10.87
2019-02-19T18:24:54.208Z,16.83
2019-02-19T18:27:23.377Z,7.90
2019-02-19T18:29:52.775Z,6.03
2019-02-19T18:32:22.095Z,8.27
2019-02-19T18:34:51.567Z,5.77
2019-02-19T18:37:20.912Z,8.23
2019-02-19T18:39:50.043Z,13.83
2019-02-19T18:42:19.171Z,12.50
2019-02-19T18:44:49.545Z,12.33
2019-02-19T18:47:18.826Z,10.97
2019-02-19T18:49:48.413Z,15.30
2019-02-19T18:52:17.385Z,9.20
2019-02-19T18:54:46.503Z,11.77
2019-02-19T18:57:16.050Z,9.93
2019-02-19T18:59:45.400Z,10.17
2019-02-19T19:02:14.493Z,9.30
2019-02-19T19:04:44.121Z,10.40
2019-02-19T19:07:18.070Z,8.47
2019-02-19T19:09:47.228Z,12.53
2019-02-19T19:12:16.527Z,12.63
2019-02-19T19:14:45.616Z,8.77
2019-02-19T19:17:14.833Z,11.00
2019-02-19T19:19:43.795Z,7.40
2019-02-19T19:22:13.137Z,8.97
2019-02-19T19:24:42.118Z,13.77
2019-02-19T19:27:11.193Z,7.27
2019-02-19T19:29:40.583Z,14.03
2019-02-19T19:32:10.780Z,10.43
2019-02-19T19:34:39.739Z,8.77
2019-02-19T19:37:09.110Z,8.63
2019-02-19T19:39:38.481Z,8.10
2019-02-19T19:42:07.811Z,8.83
2019-02-19T19:44:37.111Z,10.97
2019-02-19T19:47:06.187Z,10.53
2019-02-19T19:49:35.225Z,11.10
2019-02-19T19:52:04.424Z,13.80
2019-02-19T19:54:33.503Z,10.03
2019-02-19T19:57:04.356Z,12.57
2019-02-19T19:59:33.724Z,12.47
2019-02-19T20:02:02.855Z,12.43
2019-02-19T20:04:32.450Z,7.97
2019-02-19T20:07:01.748Z,21.60
2019-02-19T20:09:31.375Z,13.73
2019-02-19T20:12:01.046Z,12.57
2019-02-19T20:14:30.083Z,19.90
2019-02-19T20:16:59.085Z,11.67
2019-02-19T20:19:28.789Z,9.27
2019-02-19T20:21:57.895Z,12.87
2019-02-19T20:24:29.066Z,14.90
2019-02-19T20:26:58.228Z,9.73
2019-02-19T20:29:28.346Z,10.23
2019-02-19T20:31:57.825Z,11.97
2019-02-19T20:34:27.159Z,12.77
2019-02-19T20:36:56.238Z,12.77
2019-02-19T20:39:25.311Z,9.33
2019-02-19T20:41:54.534Z,13.03
2019-02-19T20:44:23.708Z,16.50
2019-02-19T20:46:53.212Z,10.33
2019-02-19T20:49:22.619Z,12.67
2019-02-19T20:51:51.972Z,11.00
2019-02-19T20:54:21.045Z,16.40
2019-02-19T20:56:50.904Z,14.47
2019-02-19T20:59:20.013Z,10.67
2019-02-19T21:01:49.260Z,46.87
2019-02-19T21:04:18.671Z,11.77
2019-02-19T21:07:07.286Z,14.83
2019-02-19T21:09:43.962Z,15.37
2019-02-19T21:12:08.770Z,8.80
2019-02-19T21:14:38.733Z,15.73
2019-02-19T21:17:07.941Z,14.30
2019-02-19T21:19:37.789Z,9.23
2019-02-19T21:22:07.091Z,12.70
2019-02-19T21:24:36.232Z,10.30
2019-02-19T21:27:05.325Z,13.97
2019-02-19T21:29:34.715Z,10.80
2019-02-19T21:32:03.925Z,15.43
2019-02-19T21:34:33.144Z,11.70
2019-02-19T21:37:02.036Z,11.40
2019-02-19T21:39:31.454Z,14.80
2019-02-19T21:42:01.594Z,12.33
2019-02-19T21:44:30.792Z,12.33
2019-02-19T21:47:00.119Z,11.40
2019-02-19T21:49:29.178Z,16.27
2019-02-19T21:51:58.440Z,12.77
2019-02-19T21:54:27.852Z,14.40
2019-02-19T21:56:57.168Z,12.80
2019-02-19T21:59:26.209Z,12.83
2019-02-19T22:01:55.538Z,11.80
2019-02-19T22:04:24.565Z,10.07
2019-02-19T22:06:53.880Z,14.27
2019-02-19T22:09:23.268Z,18.77
2019-02-19T22:11:52.589Z,15.60
2019-02-19T22:14:21.692Z,10.03
2019-02-19T22:16:50.620Z,11.43
2019-02-19T22:19:19.782Z,11.70
2019-02-19T22:22:03.853Z,9.27
2019-02-19T22:24:36.988Z,15.70
2019-02-19T22:27:07.398Z,14.83
2019-02-19T22:29:37.022Z,14.27
2019-02-19T22:32:06.350Z,16.63
2019-02-19T22:34:36.574Z,16.30
2019-02-19T22:37:05.799Z,15.90
2019-02-19T22:39:34.864Z,15.17
2019-02-19T22:42:04.240Z,18.27
2019-02-19T22:44:33.321Z,15.57
2019-02-19T22:47:02.385Z,16.43
2019-02-19T22:49:32.296Z,18.07
2019-02-19T22:52:01.454Z,14.43
2019-02-19T22:54:49.982Z,15.70
2019-02-19T22:57:19.449Z,18.10
2019-02-19T22:59:49.326Z,18.70
2019-02-19T23:02:29.678Z,15.20
2019-02-19T23:04:59.240Z,14.97
2019-02-19T23:07:28.393Z,14.70
2019-02-19T23:09:58.173Z,14.00
2019-02-19T23:12:27.771Z,19.07
2019-02-19T23:14:58.078Z,13.23
2019-02-19T23:17:27.089Z,14.63
2019-02-19T23:19:56.199Z,15.97
2019-02-19T23:22:25.298Z,20.13
2019-02-19T23:24:54.765Z,17.93
2019-02-19T23:27:23.934Z,13.47
2019-02-19T23:29:53.285Z,15.53
2019-02-19T23:32:22.585Z,12.87
2019-02-19T23:35:10.775Z,16.63
2019-02-19T23:37:39.855Z,13.70
2019-02-19T23:40:09.309Z,14.23
2019-02-19T23:42:38.356Z,13.87
2019-02-19T23:45:07.802Z,11.63
2019-02-19T23:47:36.896Z,10.10
2019-02-19T23:50:06.128Z,13.97
2019-02-19T23:52:35.058Z,11.67
2019-02-19T23:55:04.267Z,13.50
2019-02-19T23:57:33.625Z,11.53
